Time;durP1;ratioP1;P1;durP2;ratioP2;P2;SDS_P1;SDS_P2;PMS_P1;PMS_P2;Temp;Humidity;BMP_temperature;BMP_pressure;BME280_temperature;BME280_humidity;BME280_pressure;Samples;Min_cycle;Max_cycle;Signal;HPM_P1;HPM_P2
2021/07/17 00:00:47;;;;;;;22.33;19.75;;;;;;;;;;5112225;28;20373;-89
2021/07/17 00:03:13;;;;;;;22.03;19.63;;;;;;;;;;5112065;28;20381;-88
2021/07/17 00:05:39;;;;;;;23.05;19.77;;;;;;;;;;5110575;28;20716;-86
2021/07/17 00:08:06;;;;;;;22.88;20.58;;;;;;;;;;5129677;28;20372;-88
2021/07/17 00:10:35;;;;;;;21.92;19.63;;;;;;;;;;5110038;28;20366;-88
2021/07/17 00:13:01;;;;;;;25.92;20.52;;;;;;;;;;5110684;28;20859;-87
2021/07/17 00:15:27;;;;;;;22.50;18.50;;;;;;;;;;5109235;28;20411;-87
2021/07/17 00:17:55;;;;;;;23.27;19.65;;;;;;;;;;5129475;27;20381;-87
2021/07/17 00:20:22;;;;;;;22.45;18.77;;;;;;;;;;5114417;27;20373;-85
2021/07/17 00:22:48;;;;;;;21.35;17.15;;;;;;;;;;5114277;27;20381;-85
2021/07/17 00:25:19;;;;;;;21.75;17.55;;;;;;;;;;5132691;27;20388;-86
2021/07/17 00:27:46;;;;;;;18.30;15.25;;;;;;;;;;5113747;27;20476;-86
2021/07/17 00:30:12;;;;;;;19.88;15.45;;;;;;;;;;5112782;27;20381;-83
2021/07/17 00:32:38;;;;;;;17.77;15.97;;;;;;;;;;5112608;27;20391;-85
2021/07/17 00:35:06;;;;;;;18.45;14.60;;;;;;;;;;5130769;27;20393;-84
2021/07/17 00:37:32;;;;;;;20.20;14.73;;;;;;;;;;5112198;27;20374;-84
2021/07/17 00:39:58;;;;;;;14.70;13.18;;;;;;;;;;5113340;27;20953;-84
2021/07/17 00:42:24;;;;;;;19.60;15.15;;;;;;;;;;5132436;27;20376;-85
2021/07/17 00:44:51;;;;;;;18.38;14.85;;;;;;;;;;5113886;27;20508;-85
2021/07/17 00:47:17;;;;;;;15.98;14.30;;;;;;;;;;5107259;27;20383;-86
2021/07/17 00:49:43;;;;;;;18.85;14.13;;;;;;;;;;5081937;28;20399;-85
2021/07/17 00:52:09;;;;;;;16.45;14.40;;;;;;;;;;5108411;28;20462;-84
2021/07/17 00:54:36;;;;;;;18.80;14.45;;;;;;;;;;5110037;28;20421;-83
2021/07/17 00:57:02;;;;;;;18.63;12.90;;;;;;;;;;5109808;28;20363;-84
2021/07/17 00:59:29;;;;;;;15.23;13.50;;;;;;;;;;5092963;28;20738;-85
2021/07/17 01:01:56;;;;;;;15.30;13.50;;;;;;;;;;5093629;28;20375;-84
2021/07/17 01:04:22;;;;;;;17.25;13.95;;;;;;;;;;5111507;28;20438;-84
2021/07/17 01:06:49;;;;;;;14.88;13.18;;;;;;;;;;5111052;28;20378;-84
2021/07/17 01:09:15;;;;;;;19.73;14.55;;;;;;;;;;5111629;28;20367;-86
2021/07/17 01:11:41;;;;;;;18.38;14.45;;;;;;;;;;5093135;28;20375;-86
2021/07/17 01:14:07;;;;;;;19.83;14.63;;;;;;;;;;5111124;28;20462;-85
2021/07/17 01:16:34;;;;;;;18.40;15.43;;;;;;;;;;5092820;28;20927;-86
2021/07/17 01:19:02;;;;;;;17.05;14.07;;;;;;;;;;5111065;28;20962;-87
2021/07/17 01:21:28;;;;;;;21.30;15.50;;;;;;;;;;5093337;28;20729;-86
2021/07/17 01:23:54;;;;;;;18.47;14.70;;;;;;;;;;5092842;28;20366;-86
2021/07/17 01:26:20;;;;;;;20.67;15.60;;;;;;;;;;5093157;28;20371;-85
2021/07/17 01:28:46;;;;;;;18.20;14.80;;;;;;;;;;5093441;28;20381;-85
2021/07/17 01:31:13;;;;;;;17.02;14.18;;;;;;;;;;5093126;28;20524;-88
2021/07/17 01:33:40;;;;;;;18.60;14.60;;;;;;;;;;5111445;28;20406;-85
2021/07/17 01:36:06;;;;;;;17.13;13.90;;;;;;;;;;5093007;28;20406;-85
2021/07/17 01:38:32;;;;;;;16.77;13.93;;;;;;;;;;5110603;28;20359;-86
2021/07/17 01:40:59;;;;;;;20.53;14.40;;;;;;;;;;5110814;28;20723;-87
2021/07/17 01:43:24;;;;;;;18.58;14.23;;;;;;;;;;5111084;28;20372;-85
2021/07/17 01:45:50;;;;;;;17.75;13.45;;;;;;;;;;5092817;28;20371;-86
2021/07/17 01:48:17;;;;;;;17.85;12.75;;;;;;;;;;5092441;28;20363;-85
2021/07/17 01:50:43;;;;;;;21.77;13.48;;;;;;;;;;5092192;28;20375;-84
2021/07/17 01:53:11;;;;;;;23.40;14.35;;;;;;;;;;5110590;28;20363;-85
2021/07/17 01:55:37;;;;;;;18.10;13.63;;;;;;;;;;5110265;28;20406;-85
2021/07/17 01:58:04;;;;;;;17.45;13.07;;;;;;;;;;5110774;28;20383;-85
2021/07/17 02:00:30;;;;;;;17.37;12.20;;;;;;;;;;5110604;28;20371;-83
2021/07/17 02:02:56;;;;;;;16.83;12.73;;;;;;;;;;5110079;28;20370;-84
2021/07/17 02:05:26;;;;;;;21.80;12.65;;;;;;;;;;5092357;28;20379;-86
2021/07/17 02:07:52;;;;;;;17.00;12.82;;;;;;;;;;5092043;28;20905;-84
2021/07/17 02:10:20;;;;;;;19.33;12.77;;;;;;;;;;5092298;28;20458;-86
2021/07/17 02:12:55;;;;;;;21.02;13.25;;;;;;;;;;5091944;28;20378;-84
2021/07/17 02:15:21;;;;;;;14.88;12.50;;;;;;;;;;5102641;28;20391;-84
2021/07/17 02:17:48;;;;;;;16.05;12.05;;;;;;;;;;5116575;28;20378;-87
2021/07/17 02:20:14;;;;;;;21.27;12.43;;;;;;;;;;5097832;28;20366;-86
2021/07/17 02:22:41;;;;;;;19.70;12.15;;;;;;;;;;5115848;28;20379;-86
2021/07/17 02:25:07;;;;;;;21.63;12.85;;;;;;;;;;5093408;28;20491;-86
2021/07/17 02:27:33;;;;;;;21.52;12.90;;;;;;;;;;5092189;28;20370;-87
2021/07/17 02:29:59;;;;;;;22.55;13.05;;;;;;;;;;5110052;28;20366;-86
2021/07/17 02:32:25;;;;;;;19.13;13.18;;;;;;;;;;5091757;28;20725;-85
2021/07/17 02:34:51;;;;;;;21.93;13.00;;;;;;;;;;5091872;28;20410;-86
2021/07/17 02:37:18;;;;;;;22.60;13.15;;;;;;;;;;5091694;28;20797;-87
2021/07/17 02:39:44;;;;;;;23.77;13.45;;;;;;;;;;5109886;28;20416;-83
2021/07/17 02:42:10;;;;;;;21.45;13.50;;;;;;;;;;5091198;28;20378;-85
2021/07/17 02:44:36;;;;;;;18.00;12.80;;;;;;;;;;5091570;28;20378;-88
2021/07/17 02:47:02;;;;;;;24.73;13.38;;;;;;;;;;5110233;28;20366;-85
2021/07/17 02:49:28;;;;;;;23.38;12.75;;;;;;;;;;5091650;28;20856;-84
2021/07/17 02:51:55;;;;;;;24.75;13.30;;;;;;;;;;5092449;28;20366;-84
2021/07/17 02:54:21;;;;;;;19.33;13.10;;;;;;;;;;5109788;28;20523;-87
2021/07/17 02:56:47;;;;;;;24.42;14.38;;;;;;;;;;5109839;28;20443;-87
2021/07/17 02:59:13;;;;;;;27.83;14.70;;;;;;;;;;5091563;28;20378;-86
2021/07/17 03:01:39;;;;;;;24.90;13.85;;;;;;;;;;5091979;28;20370;-89
2021/07/17 03:04:05;;;;;;;20.70;13.10;;;;;;;;;;5110089;28;20370;-88
2021/07/17 03:06:31;;;;;;;23.08;13.57;;;;;;;;;;5091734;28;20370;-85
2021/07/17 03:08:57;;;;;;;27.80;14.40;;;;;;;;;;5091385;28;20374;-89
2021/07/17 03:11:23;;;;;;;26.33;14.30;;;;;;;;;;5091235;28;20367;-85
2021/07/17 03:13:49;;;;;;;23.02;14.02;;;;;;;;;;5091469;28;20732;-87
2021/07/17 03:16:16;;;;;;;29.45;15.40;;;;;;;;;;5090802;28;20883;-86
2021/07/17 03:18:42;;;;;;;30.77;15.10;;;;;;;;;;5090732;28;20845;-85
2021/07/17 03:21:08;;;;;;;24.48;14.40;;;;;;;;;;5091499;28;20410;-88
2021/07/17 03:23:34;;;;;;;29.63;15.82;;;;;;;;;;5090781;28;20370;-84
2021/07/17 03:26:00;;;;;;;27.73;15.73;;;;;;;;;;5090899;28;20743;-89
2021/07/17 03:28:26;;;;;;;26.92;15.40;;;;;;;;;;5090990;28;20363;-86
2021/07/17 03:30:52;;;;;;;27.67;15.77;;;;;;;;;;5109090;28;20719;-85
2021/07/17 03:33:18;;;;;;;31.53;15.80;;;;;;;;;;5109225;28;20936;-89
2021/07/17 03:35:45;;;;;;;26.95;15.05;;;;;;;;;;5090969;28;20407;-86
2021/07/17 03:38:11;;;;;;;26.38;14.85;;;;;;;;;;5090908;28;20378;-84
2021/07/17 03:40:37;;;;;;;33.17;15.80;;;;;;;;;;5090591;28;20386;-87
2021/07/17 03:43:03;;;;;;;30.95;16.30;;;;;;;;;;5108836;28;20363;-85
2021/07/17 03:45:29;;;;;;;34.63;17.17;;;;;;;;;;5090858;28;20367;-86
2021/07/17 03:47:55;;;;;;;33.75;16.77;;;;;;;;;;5091088;28;20381;-84
2021/07/17 03:50:21;;;;;;;27.83;15.87;;;;;;;;;;5109025;28;20375;-84
2021/07/17 03:52:47;;;;;;;28.92;15.45;;;;;;;;;;5109385;28;20379;-82
2021/07/17 03:55:13;;;;;;;30.10;15.02;;;;;;;;;;5094205;28;20413;-86
2021/07/17 03:57:39;;;;;;;34.08;16.25;;;;;;;;;;5112544;28;20744;-84
2021/07/17 04:00:06;;;;;;;30.02;15.35;;;;;;;;;;5112703;28;20382;-85
2021/07/17 04:02:40;;;;;;;31.60;15.47;;;;;;;;;;5094485;28;20362;-87
2021/07/17 04:05:07;;;;;;;32.88;16.25;;;;;;;;;;5094837;28;20375;-88
2021/07/17 04:07:32;;;;;;;35.67;17.38;;;;;;;;;;5112861;28;20442;-84
2021/07/17 04:09:58;;;;;;;33.95;16.42;;;;;;;;;;5112368;28;20449;-84
2021/07/17 04:12:25;;;;;;;36.47;16.40;;;;;;;;;;5094334;28;20371;-85
2021/07/17 04:14:51;;;;;;;33.80;16.80;;;;;;;;;;5112488;28;20434;-87
2021/07/17 04:17:17;;;;;;;32.85;17.42;;;;;;;;;;5112733;28;20471;-87
2021/07/17 04:19:43;;;;;;;33.55;17.13;;;;;;;;;;5112471;28;20370;-88
2021/07/17 04:22:09;;;;;;;34.70;17.88;;;;;;;;;;5094128;28;20386;-85
2021/07/17 04:24:35;;;;;;;33.22;16.67;;;;;;;;;;5094538;28;20386;-86
2021/07/17 04:27:01;;;;;;;34.43;16.93;;;;;;;;;;5095210;28;20397;-85
2021/07/17 04:29:26;;;;;;;32.80;17.00;;;;;;;;;;5112996;28;20873;-89
2021/07/17 04:31:52;;;;;;;36.00;17.05;;;;;;;;;;5095139;28;20394;-86
2021/07/17 04:34:18;;;;;;;35.97;17.20;;;;;;;;;;5094178;28;20374;-87
2021/07/17 04:36:44;;;;;;;33.70;17.00;;;;;;;;;;5094411;28;20378;-88
2021/07/17 04:39:11;;;;;;;42.05;17.55;;;;;;;;;;5095035;28;20375;-86
2021/07/17 04:41:37;;;;;;;34.07;16.87;;;;;;;;;;5093883;28;20371;-89
2021/07/17 04:44:03;;;;;;;35.55;17.50;;;;;;;;;;5112011;28;20367;-84
2021/07/17 04:46:29;;;;;;;38.17;16.23;;;;;;;;;;5094303;28;20367;-84
2021/07/17 04:48:55;;;;;;;35.20;17.85;;;;;;;;;;5094430;28;20382;-86
2021/07/17 04:51:21;;;;;;;36.30;17.58;;;;;;;;;;5093771;28;20867;-87
2021/07/17 04:53:47;;;;;;;34.00;17.73;;;;;;;;;;5093497;28;20395;-84
2021/07/17 04:56:13;;;;;;;33.55;16.65;;;;;;;;;;5111922;28;20875;-84
2021/07/17 04:58:39;;;;;;;32.85;16.00;;;;;;;;;;5094618;28;20374;-85
2021/07/17 05:01:06;;;;;;;31.52;17.63;;;;;;;;;;5113382;28;20369;-85
2021/07/17 05:03:32;;;;;;;33.60;17.60;;;;;;;;;;5095331;28;20379;-87
2021/07/17 05:05:58;;;;;;;31.45;16.63;;;;;;;;;;5112569;28;20367;-86
2021/07/17 05:08:24;;;;;;;32.05;16.55;;;;;;;;;;5111895;28;20896;-86
2021/07/17 05:10:50;;;;;;;32.07;16.10;;;;;;;;;;5094341;28;20374;-87
2021/07/17 05:13:18;;;;;;;37.95;17.23;;;;;;;;;;5093809;28;20371;-85
2021/07/17 05:15:44;;;;;;;26.70;14.70;;;;;;;;;;5093800;28;20429;-87
2021/07/17 05:18:11;;;;;;;32.33;15.80;;;;;;;;;;5093849;28;20374;-86
2021/07/17 05:20:37;;;;;;;29.67;15.10;;;;;;;;;;5111635;28;20526;-86
2021/07/17 05:23:03;;;;;;;26.93;15.60;;;;;;;;;;5111760;28;20439;-85
2021/07/17 05:25:29;;;;;;;28.87;15.60;;;;;;;;;;5111247;28;20358;-89
2021/07/17 05:27:56;;;;;;;29.58;16.15;;;;;;;;;;5093390;28;20371;-86
2021/07/17 05:30:21;;;;;;;30.52;17.23;;;;;;;;;;5092767;28;20402;-84
2021/07/17 05:32:47;;;;;;;31.80;16.05;;;;;;;;;;5111002;28;20845;-86
2021/07/17 05:35:13;;;;;;;24.75;15.02;;;;;;;;;;5110810;28;20399;-85
2021/07/17 05:37:39;;;;;;;30.47;17.73;;;;;;;;;;5092920;28;20716;-85
2021/07/17 05:40:06;;;;;;;27.17;15.70;;;;;;;;;;5092479;28;20461;-84
2021/07/17 05:42:32;;;;;;;23.98;15.98;;;;;;;;;;5092533;28;20370;-88
2021/07/17 05:44:58;;;;;;;27.20;14.88;;;;;;;;;;5110649;28;20366;-87
2021/07/17 05:47:25;;;;;;;25.88;16.52;;;;;;;;;;5092895;28;20552;-86
2021/07/17 05:49:51;;;;;;;31.15;16.38;;;;;;;;;;5110447;28;20849;-85
2021/07/17 05:52:17;;;;;;;28.15;15.57;;;;;;;;;;5092248;28;20385;-83
2021/07/17 05:54:43;;;;;;;26.42;15.98;;;;;;;;;;5092134;28;20489;-86
2021/07/17 05:57:10;;;;;;;25.80;16.17;;;;;;;;;;5092428;28;20417;-85
2021/07/17 05:59:36;;;;;;;25.73;17.00;;;;;;;;;;5110420;28;20819;-85
2021/07/17 06:02:03;;;;;;;24.02;16.30;;;;;;;;;;5110648;28;20358;-86
2021/07/17 06:04:29;;;;;;;24.60;16.10;;;;;;;;;;5091981;28;20940;-88
2021/07/17 06:06:55;;;;;;;23.02;16.98;;;;;;;;;;5075658;28;20446;-86
2021/07/17 06:09:21;;;;;;;24.77;17.00;;;;;;;;;;5092104;28;20875;-86
2021/07/17 06:11:47;;;;;;;23.30;16.30;;;;;;;;;;5110512;28;20473;-85
2021/07/17 06:14:13;;;;;;;28.10;18.30;;;;;;;;;;5110657;28;20465;-87
2021/07/17 06:16:39;;;;;;;22.95;18.08;;;;;;;;;;5109329;28;20470;-86
2021/07/17 06:19:05;;;;;;;22.47;17.17;;;;;;;;;;5091806;28;20363;-87
2021/07/17 06:21:31;;;;;;;27.67;18.55;;;;;;;;;;5092026;28;20404;-89
2021/07/17 06:23:57;;;;;;;22.08;18.13;;;;;;;;;;5092037;28;20788;-87
2021/07/17 06:26:24;;;;;;;22.15;17.67;;;;;;;;;;5110621;28;20356;-87
2021/07/17 06:28:49;;;;;;;24.65;18.05;;;;;;;;;;5109961;28;20843;-84
2021/07/17 06:31:17;;;;;;;26.10;19.83;;;;;;;;;;5110059;28;20388;-86
2021/07/17 06:33:43;;;;;;;23.30;18.23;;;;;;;;;;5109993;28;20906;-87
2021/07/17 06:36:09;;;;;;;22.57;18.57;;;;;;;;;;5091770;28;20420;-87
2021/07/17 06:38:35;;;;;;;22.90;19.17;;;;;;;;;;5092194;28;20410;-85
2021/07/17 06:41:02;;;;;;;22.52;18.83;;;;;;;;;;5092179;28;20433;-85
2021/07/17 06:43:28;;;;;;;24.95;19.80;;;;;;;;;;5110505;28;20378;-87
2021/07/17 06:45:54;;;;;;;21.52;18.88;;;;;;;;;;5091455;28;20406;-85
2021/07/17 06:48:20;;;;;;;22.70;19.77;;;;;;;;;;5091381;28;20410;-90
2021/07/17 06:50:48;;;;;;;24.90;19.73;;;;;;;;;;5091773;28;20935;-83
2021/07/17 06:53:14;;;;;;;22.55;20.15;;;;;;;;;;5109969;28;20373;-89
2021/07/17 06:55:40;;;;;;;24.20;20.48;;;;;;;;;;5091465;28;20402;-82
2021/07/17 06:58:06;;;;;;;21.93;19.73;;;;;;;;;;5091668;28;20378;-86
2021/07/17 07:00:34;;;;;;;21.55;19.30;;;;;;;;;;5091840;28;20375;-89
2021/07/17 07:03:00;;;;;;;27.13;22.15;;;;;;;;;;5109304;28;20363;-86
2021/07/17 07:05:26;;;;;;;22.88;20.35;;;;;;;;;;5092260;28;20458;-85
2021/07/17 07:07:52;;;;;;;23.77;20.33;;;;;;;;;;5092104;28;20466;-88
2021/07/17 07:10:18;;;;;;;22.98;20.58;;;;;;;;;;5110052;28;20875;-88
2021/07/17 07:12:44;;;;;;;22.17;19.85;;;;;;;;;;5109347;28;20363;-88
2021/07/17 07:15:11;;;;;;;21.92;19.70;;;;;;;;;;5091612;28;20479;-88
2021/07/17 07:17:38;;;;;;;21.92;19.73;;;;;;;;;;5090893;28;20389;-88
2021/07/17 07:20:05;;;;;;;22.47;20.17;;;;;;;;;;5091391;28;20744;-87
2021/07/17 07:22:31;;;;;;;22.15;19.90;;;;;;;;;;5091295;28;20449;-86
2021/07/17 07:24:57;;;;;;;21.70;19.58;;;;;;;;;;5109492;28;20363;-86
2021/07/17 07:27:23;;;;;;;22.25;20.08;;;;;;;;;;5092632;28;20374;-87
2021/07/17 07:29:49;;;;;;;24.20;21.52;;;;;;;;;;5113335;28;20404;-88
2021/07/17 07:32:15;;;;;;;22.87;20.60;;;;;;;;;;5095591;28;20381;-86
2021/07/17 07:34:41;;;;;;;23.85;21.35;;;;;;;;;;5095829;28;20415;-84
2021/07/17 07:37:08;;;;;;;24.25;21.88;;;;;;;;;;5095935;28;20385;-86
2021/07/17 07:39:34;;;;;;;23.23;20.83;;;;;;;;;;5095544;28;20450;-91
2021/07/17 07:42:00;;;;;;;22.65;20.38;;;;;;;;;;5095653;28;20375;-90
2021/07/17 07:44:26;;;;;;;22.90;20.60;;;;;;;;;;5095253;28;20790;-86
2021/07/17 07:46:53;;;;;;;23.02;20.73;;;;;;;;;;5094984;28;20465;-88
2021/07/17 07:49:19;;;;;;;23.58;21.17;;;;;;;;;;5095554;28;20393;-86
2021/07/17 07:51:45;;;;;;;23.65;21.20;;;;;;;;;;5095943;28;20398;-87
2021/07/17 07:54:11;;;;;;;23.20;20.85;;;;;;;;;;5095423;28;20434;-87
2021/07/17 07:56:37;;;;;;;23.75;21.30;;;;;;;;;;5096370;28;20399;-88
2021/07/17 07:59:03;;;;;;;22.90;20.50;;;;;;;;;;5096116;28;20378;-89
2021/07/17 08:01:29;;;;;;;23.83;21.45;;;;;;;;;;5096231;28;20469;-87
2021/07/17 08:03:55;;;;;;;23.13;21.00;;;;;;;;;;5115264;28;20365;-87
2021/07/17 08:06:21;;;;;;;23.65;21.08;;;;;;;;;;5096628;28;20944;-89
2021/07/17 08:08:47;;;;;;;23.30;21.00;;;;;;;;;;5096134;28;20386;-88
2021/07/17 08:11:13;;;;;;;24.13;21.80;;;;;;;;;;5096756;28;20375;-87
2021/07/17 08:13:39;;;;;;;25.60;23.17;;;;;;;;;;5095425;28;20478;-89
2021/07/17 08:16:05;;;;;;;25.05;22.42;;;;;;;;;;5112962;28;20447;-88
2021/07/17 08:18:31;;;;;;;25.92;23.45;;;;;;;;;;5112937;28;20371;-89
2021/07/17 08:20:58;;;;;;;25.33;22.88;;;;;;;;;;5094609;28;20429;-89
2021/07/17 08:23:24;;;;;;;23.87;21.73;;;;;;;;;;5094390;28;20470;-87
2021/07/17 08:25:51;;;;;;;25.20;22.55;;;;;;;;;;5094351;28;20389;-88
2021/07/17 08:28:17;;;;;;;22.67;20.42;;;;;;;;;;5094879;28;20387;-89
2021/07/17 08:30:43;;;;;;;24.55;22.15;;;;;;;;;;5112985;28;20453;-87
2021/07/17 08:33:09;;;;;;;23.77;21.42;;;;;;;;;;5094341;28;20998;-89
2021/07/17 08:35:35;;;;;;;23.30;20.95;;;;;;;;;;5112638;28;20403;-89
2021/07/17 08:38:01;;;;;;;23.27;21.10;;;;;;;;;;5094666;28;20382;-86
2021/07/17 08:40:27;;;;;;;20.23;18.38;;;;;;;;;;5112123;28;20367;-88
2021/07/17 08:42:55;;;;;;;21.75;19.42;;;;;;;;;;5094708;28;20374;-91
2021/07/17 08:45:22;;;;;;;20.17;18.15;;;;;;;;;;5094619;28;20374;-86
2021/07/17 08:47:48;;;;;;;20.45;18.52;;;;;;;;;;5094866;28;20382;-88
2021/07/17 08:50:21;;;;;;;20.65;18.52;;;;;;;;;;5084510;28;20359;-90
2021/07/17 08:53:02;;;;;;;19.57;17.47;;;;;;;;;;5084938;28;20386;-91
2021/07/17 08:55:28;;;;;;;20.13;18.00;;;;;;;;;;5084049;28;20410;-86
2021/07/17 08:58:18;;;;;;;20.00;17.85;;;;;;;;;;5085469;28;20913;-90
2021/07/17 09:00:44;;;;;;;19.42;17.52;;;;;;;;;;5082042;28;20371;-86
2021/07/17 09:03:18;;;;;;;19.38;17.42;;;;;;;;;;5080033;28;20377;-84
2021/07/17 09:05:46;;;;;;;20.13;17.97;;;;;;;;;;5081411;28;20371;-89
2021/07/17 09:08:14;;;;;;;19.73;17.65;;;;;;;;;;5084279;28;20379;-88
2021/07/17 09:10:44;;;;;;;20.95;18.90;;;;;;;;;;5100561;28;20369;-84
2021/07/17 09:13:10;;;;;;;19.90;17.88;;;;;;;;;;5082317;28;20456;-88
2021/07/17 09:15:36;;;;;;;20.57;18.50;;;;;;;;;;5104559;28;20498;-87
2021/07/17 09:18:06;;;;;;;21.35;19.15;;;;;;;;;;5082163;28;20384;-84
2021/07/17 09:20:32;;;;;;;23.43;19.73;;;;;;;;;;5100602;28;20383;-87
2021/07/17 09:22:59;;;;;;;22.13;19.77;;;;;;;;;;5084924;28;20431;-86
2021/07/17 09:25:38;;;;;;;22.15;19.83;;;;;;;;;;5100558;28;20456;-92
2021/07/17 09:28:14;;;;;;;21.27;18.95;;;;;;;;;;5081518;28;20976;-89
2021/07/17 09:30:40;;;;;;;22.00;19.85;;;;;;;;;;5082006;28;20375;-87
2021/07/17 09:33:07;;;;;;;20.90;18.75;;;;;;;;;;5084019;28;20379;-89
2021/07/17 09:35:34;;;;;;;21.08;19.13;;;;;;;;;;5100654;28;20400;-88
2021/07/17 09:38:02;;;;;;;21.77;19.48;;;;;;;;;;5081845;28;20375;-89
2021/07/17 09:40:28;;;;;;;21.17;19.00;;;;;;;;;;5083339;28;20386;-90
2021/07/17 09:42:54;;;;;;;20.58;18.50;;;;;;;;;;5083590;28;20917;-85
2021/07/17 09:45:33;;;;;;;20.73;18.53;;;;;;;;;;5083007;28;20370;-89
2021/07/17 09:47:59;;;;;;;20.10;18.10;;;;;;;;;;5082637;28;20384;-83
2021/07/17 09:50:32;;;;;;;19.37;17.33;;;;;;;;;;5099390;28;20361;-85
2021/07/17 09:52:59;;;;;;;18.90;17.00;;;;;;;;;;5098929;28;20420;-89
2021/07/17 09:55:25;;;;;;;17.85;15.95;;;;;;;;;;5101072;28;20437;-88
2021/07/17 09:57:51;;;;;;;17.67;15.98;;;;;;;;;;5099798;28;20401;-89
2021/07/17 10:00:19;;;;;;;16.35;14.77;;;;;;;;;;5099819;28;20364;-86
2021/07/17 10:02:45;;;;;;;16.60;15.05;;;;;;;;;;5081244;28;20535;-87
2021/07/17 10:05:15;;;;;;;16.92;15.32;;;;;;;;;;5082977;28;20438;-88
2021/07/17 10:07:41;;;;;;;16.57;14.87;;;;;;;;;;5082576;28;20425;-87
2021/07/17 10:10:07;;;;;;;16.20;14.57;;;;;;;;;;5081740;28;20364;-87
2021/07/17 10:12:34;;;;;;;16.50;14.85;;;;;;;;;;5082581;28;20375;-92
2021/07/17 10:15:00;;;;;;;16.85;15.20;;;;;;;;;;5082828;28;20419;-89
2021/07/17 10:17:34;;;;;;;17.52;15.93;;;;;;;;;;5099229;28;20407;-87
2021/07/17 10:20:00;;;;;;;18.95;15.93;;;;;;;;;;5081698;28;20422;-89
2021/07/17 10:22:26;;;;;;;18.40;15.70;;;;;;;;;;5101075;28;20844;-92
2021/07/17 10:24:53;;;;;;;17.25;15.57;;;;;;;;;;5080694;28;20506;-88
2021/07/17 10:27:20;;;;;;;17.83;15.93;;;;;;;;;;5082090;28;20386;-88
2021/07/17 10:29:46;;;;;;;17.13;15.43;;;;;;;;;;5082546;28;20427;-85
2021/07/17 10:32:12;;;;;;;17.40;15.60;;;;;;;;;;5098843;28;20384;-89
2021/07/17 10:34:38;;;;;;;17.52;15.80;;;;;;;;;;5080999;28;20391;-87
2021/07/17 10:37:11;;;;;;;18.10;16.13;;;;;;;;;;5082815;28;20383;-87
2021/07/17 10:39:40;;;;;;;17.33;15.52;;;;;;;;;;5081662;28;20372;-89
2021/07/17 10:42:13;;;;;;;16.77;15.05;;;;;;;;;;5080311;28;20388;-87
2021/07/17 10:44:54;;;;;;;17.35;15.60;;;;;;;;;;5081886;28;20432;-86
2021/07/17 10:47:21;;;;;;;16.92;15.13;;;;;;;;;;5079835;28;20472;-89
2021/07/17 10:49:48;;;;;;;17.08;15.32;;;;;;;;;;5080623;28;20363;-88
2021/07/17 10:52:15;;;;;;;16.80;15.17;;;;;;;;;;5080815;28;20385;-88
2021/07/17 10:54:42;;;;;;;17.98;16.27;;;;;;;;;;5076935;28;20509;-88
2021/07/17 10:57:09;;;;;;;16.02;14.57;;;;;;;;;;5074368;28;20381;-89
2021/07/17 10:59:44;;;;;;;15.75;14.07;;;;;;;;;;5080388;28;20456;-89
2021/07/17 11:02:11;;;;;;;15.43;13.90;;;;;;;;;;5075317;28;20383;-89
2021/07/17 11:04:47;;;;;;;15.97;14.37;;;;;;;;;;5074915;28;20781;-90
2021/07/17 11:07:16;;;;;;;15.70;14.10;;;;;;;;;;5085605;28;20372;-86
2021/07/17 11:09:54;;;;;;;16.23;14.52;;;;;;;;;;5084484;28;20899;-87
2021/07/17 11:12:22;;;;;;;16.98;15.38;;;;;;;;;;5087814;28;20402;-89
2021/07/17 11:14:48;;;;;;;16.60;14.90;;;;;;;;;;5087280;28;20367;-87
2021/07/17 11:17:34;;;;;;;16.47;14.83;;;;;;;;;;5096094;28;20390;-87
2021/07/17 11:20:19;;;;;;;16.55;14.95;;;;;;;;;;5080558;28;20467;-88
2021/07/17 11:23:02;;;;;;;15.65;14.25;;;;;;;;;;5081425;28;20426;-90
2021/07/17 11:25:28;;;;;;;16.02;14.35;;;;;;;;;;5085899;28;20383;-87
2021/07/17 11:27:54;;;;;;;16.73;15.02;;;;;;;;;;5088441;28;20972;-86
2021/07/17 11:30:21;;;;;;;15.70;14.25;;;;;;;;;;5086657;28;20368;-90
2021/07/17 11:33:06;;;;;;;16.40;14.73;;;;;;;;;;5088445;28;20392;-87
2021/07/17 11:35:31;;;;;;;15.90;14.50;;;;;;;;;;5083532;28;20407;-89
2021/07/17 11:37:58;;;;;;;15.13;13.70;;;;;;;;;;5112295;28;20400;-88
2021/07/17 11:40:24;;;;;;;15.82;14.23;;;;;;;;;;5094350;28;20377;-87
2021/07/17 11:42:50;;;;;;;16.93;15.33;;;;;;;;;;5095408;28;20474;-88
2021/07/17 11:45:16;;;;;;;16.23;14.80;;;;;;;;;;5104347;28;20475;-87
2021/07/17 11:47:43;;;;;;;16.77;14.70;;;;;;;;;;5086952;28;20363;-88
2021/07/17 11:50:09;;;;;;;16.20;14.70;;;;;;;;;;5091382;28;20458;-87
2021/07/17 11:52:37;;;;;;;16.88;14.85;;;;;;;;;;5080974;28;20375;-87
2021/07/17 11:55:04;;;;;;;15.70;14.30;;;;;;;;;;5102544;28;20399;-88
2021/07/17 11:57:45;;;;;;;16.25;14.55;;;;;;;;;;5080122;28;20483;-87
2021/07/17 12:00:15;;;;;;;15.20;13.80;;;;;;;;;;5079004;28;20378;-86
2021/07/17 12:02:41;;;;;;;15.40;14.00;;;;;;;;;;5077062;28;20864;-86
2021/07/17 12:05:14;;;;;;;14.80;13.45;;;;;;;;;;5073604;28;20371;-86
2021/07/17 12:07:41;;;;;;;14.17;12.80;;;;;;;;;;5080081;28;20469;-88
2021/07/17 12:10:08;;;;;;;13.95;12.55;;;;;;;;;;5093929;28;20381;-88
2021/07/17 12:12:43;;;;;;;15.07;13.13;;;;;;;;;;5079406;28;20482;-87
2021/07/17 12:15:12;;;;;;;13.70;12.38;;;;;;;;;;5081776;28;20412;-85
2021/07/17 12:17:42;;;;;;;12.95;11.63;;;;;;;;;;5082567;28;20371;-88
2021/07/17 12:20:10;;;;;;;13.15;12.05;;;;;;;;;;5081723;28;20585;-87
2021/07/17 12:22:37;;;;;;;13.60;12.10;;;;;;;;;;5097392;28;20506;-88
2021/07/17 12:25:11;;;;;;;13.38;11.98;;;;;;;;;;5101658;27;20374;-88
2021/07/17 12:27:51;;;;;;;13.77;12.35;;;;;;;;;;5082275;28;20369;-88
2021/07/17 12:30:18;;;;;;;12.90;11.70;;;;;;;;;;5081834;28;20387;-88
2021/07/17 12:32:44;;;;;;;13.73;11.95;;;;;;;;;;5098106;28;20371;-88
2021/07/17 12:35:10;;;;;;;13.20;11.52;;;;;;;;;;5081300;28;20898;-87
2021/07/17 12:37:36;;;;;;;13.45;12.02;;;;;;;;;;5077684;28;20373;-88
2021/07/17 12:40:05;;;;;;;13.27;11.88;;;;;;;;;;5095469;28;20470;-89
2021/07/17 12:42:32;;;;;;;12.77;11.57;;;;;;;;;;5094551;28;20566;-89
2021/07/17 12:45:00;;;;;;;12.30;11.02;;;;;;;;;;5079787;28;20860;-89
2021/07/17 12:47:28;;;;;;;14.45;11.98;;;;;;;;;;5099077;28;20514;-87
2021/07/17 12:50:01;;;;;;;12.60;11.40;;;;;;;;;;5089361;28;20437;-88
2021/07/17 12:52:27;;;;;;;11.60;10.50;;;;;;;;;;5081029;28;20369;-89
2021/07/17 12:55:04;;;;;;;12.80;11.70;;;;;;;;;;5076692;28;20384;-88
2021/07/17 12:57:31;;;;;;;12.52;10.93;;;;;;;;;;5082594;28;20849;-92
2021/07/17 13:00:04;;;;;;;12.10;10.95;;;;;;;;;;5080657;28;20874;-89
2021/07/17 13:02:34;;;;;;;12.70;11.45;;;;;;;;;;5084756;28;20947;-87
2021/07/17 13:05:00;;;;;;;13.18;11.88;;;;;;;;;;5092058;28;20377;-86
2021/07/17 13:07:31;;;;;;;12.68;11.57;;;;;;;;;;5100975;27;20441;-87
2021/07/17 13:09:57;;;;;;;12.90;11.60;;;;;;;;;;5093063;28;20360;-85
2021/07/17 13:12:29;;;;;;;13.07;11.77;;;;;;;;;;5080347;28;20874;-88
2021/07/17 13:14:56;;;;;;;12.68;11.43;;;;;;;;;;5083183;28;21046;-87
2021/07/17 13:17:22;;;;;;;13.45;12.10;;;;;;;;;;5086433;28;20364;-90
2021/07/17 13:20:00;;;;;;;11.77;10.67;;;;;;;;;;5100868;28;20397;-86
2021/07/17 13:22:33;;;;;;;12.73;11.43;;;;;;;;;;5085155;28;20386;-88
2021/07/17 13:25:09;;;;;;;11.97;10.77;;;;;;;;;;5083671;28;20934;-87
2021/07/17 13:27:35;;;;;;;12.20;10.97;;;;;;;;;;5083093;28;20368;-87
2021/07/17 13:30:01;;;;;;;12.18;11.00;;;;;;;;;;5086639;28;20945;-88
2021/07/17 13:32:27;;;;;;;11.48;10.48;;;;;;;;;;5091549;28;20855;-90
2021/07/17 13:34:53;;;;;;;11.13;10.07;;;;;;;;;;5079646;28;20364;-89
2021/07/17 13:37:19;;;;;;;11.63;10.43;;;;;;;;;;5079684;28;20436;-89
2021/07/17 13:40:03;;;;;;;10.40;9.40;;;;;;;;;;5101535;28;20356;-88
2021/07/17 13:42:32;;;;;;;10.73;9.70;;;;;;;;;;5101497;28;20541;-86
2021/07/17 13:45:01;;;;;;;10.15;9.23;;;;;;;;;;5081728;28;20412;-87
2021/07/17 13:47:34;;;;;;;10.80;9.52;;;;;;;;;;5082829;28;20437;-87
2021/07/17 13:50:01;;;;;;;10.13;9.23;;;;;;;;;;5082246;28;20815;-88
2021/07/17 13:52:32;;;;;;;10.20;9.20;;;;;;;;;;5101657;28;20447;-88
2021/07/17 13:54:58;;;;;;;10.27;9.27;;;;;;;;;;5082143;28;20457;-87
2021/07/17 13:57:32;;;;;;;10.60;9.25;;;;;;;;;;5101527;27;20383;-88
2021/07/17 14:00:05;;;;;;;10.60;9.05;;;;;;;;;;5082041;28;20379;-87
2021/07/17 14:02:31;;;;;;;13.40;10.43;;;;;;;;;;5084887;28;20493;-87
2021/07/17 14:04:57;;;;;;;10.40;9.35;;;;;;;;;;5109052;28;20363;-88
2021/07/17 14:07:23;;;;;;;10.47;9.37;;;;;;;;;;5090910;28;20431;-87
2021/07/17 14:09:49;;;;;;;12.13;8.95;;;;;;;;;;5082762;28;20521;-87
2021/07/17 14:12:15;;;;;;;9.35;8.27;;;;;;;;;;5082742;28;20406;-86
2021/07/17 14:14:41;;;;;;;9.60;8.60;;;;;;;;;;5084309;28;21090;-89
2021/07/17 14:17:07;;;;;;;9.88;8.73;;;;;;;;;;5081253;28;20418;-86
2021/07/17 14:19:33;;;;;;;9.43;8.50;;;;;;;;;;5073409;28;20746;-89